Main page
METAR-TAF:

METAR-TAF

Airports :

Boca Raton Airport

Boca Raton, Florida, United States

latitude: 26-22-43N, longitude: 080-06-28W, elevation: 13 ft

Current weather observation

The report was made 1 hour and 14 minutes ago, at 11:59 UTC
Wind 8 mph from the South/Southeast
Temperature 86°F
Humidity 75%
Pressure 30.08 in. Hg
Visibility: 10 miles
Scattered clouds at a height of 2700 ft

METAR: KBCT 281159Z 15007KT 10SM SCT027 30/25 A3008

Time: 09:13 (13:13 UTC)


TAF: missing

Weather observations and forecasts of more than 4000 airports (METAR and TAF reports).

The available stations are represented by yellow and red dots on the map.

Hover mouse over dot to see the name of the station.

Then click to see weather observations and forecasts.

To change the map : click on the green buttons with a black cross to zoom in, on the green button with a dash to zoom out, or on the green arrows for adjacent maps.


METAR-TAF: